Gillette, WY (82716)

6:39 PM MDT on April 28, 2017 (GMT -0600)
McCann Heights, central Gillette | | Change Station

Elev 4590 ft 44.28 °N, 105.50 °W | Updated 22 seconds ago

Mostly Cloudy
Mostly Cloudy
39.5 °F
Feels Like 40 °F
N
0.0
Wind Variable Wind from West

Today
High -- | Low -- °F
--% Chance of Precip.
Yesterday
High -- | Low -- °F
Precip. -- in
Pressure 30.14 in
Visibility -9999.0 miles
Clouds Mostly Cloudy 10000 ft
Windchill 40 °F
Dew Point 31 °F
Humidity 71%
Rainfall 0.42 in
Snow Depth Not available.
5:56 AM 8:03 PM
Waxing Crescent, 9% visible
METAR KGCC 282353Z AUTO 29009KT BKN100 02/M01 A3008 RMK AO2 SLP205 60005 T00221011 10039 20011 53015 $
Pressure 30.14 in
Visibility -9999.0 miles
Clouds Mostly Cloudy 10000 ft
Windchill 40 °F
Dew Point 31 °F
Humidity 71%
Rainfall 0.42 in
Snow Depth Not available.
5:56 AM 8:03 PM
Waxing Crescent, 9% visible
METAR KGCC 282353Z AUTO 29009KT BKN100 02/M01 A3008 RMK AO2 SLP205 60005 T00221011 10039 20011 53015 $

Get Severe Weather Alerts

Thanks for signing up!

Be on the lookout for a verification email in your inbox.

You'll start receiving the daily forecast at 8 AM.

×

10-Day Weather Forecast

Almanac

Astronomy

Apr. 28, 2017 Rise Set
Actual Time
Civil Twilight
Nautical Twilight
Astronomical Twilight
Moon
Length of Visible Light
Length of Day
Tomorrow will be .
, % of the Moon is Illuminated

Today's Extremes

State Highs State Lows

Community

WunderPhotos

WunderBlog® & News

Nearby

Air Quality

  Air Quality AQ Index Pollutant
Not available.

Snow Depth

Station Depth Elevation

Earthquake Activity

City Distance Mag. Time & Date
Minimum magnitude displayed is 2.5.

Coastal Water Temperatures

Place Temperature

Stations

Nearby Weather Stations

Station Location Temp. Windchill Dew Point Humidity Wind Precip. Elev Updated Type
                   

Watches & Warnings

There are currently no watches in effect.